createdAt,value
2019-01-20T00:00:11.253Z,20.30
2019-01-20T00:05:28.016Z,30.73
2019-01-20T00:10:42.531Z,26.23
2019-01-20T00:15:57.841Z,18.90
2019-01-20T00:21:12.662Z,21.63
2019-01-20T00:26:27.328Z,31.93
2019-01-20T00:31:42.330Z,26.17
2019-01-20T00:36:58.048Z,19.83
2019-01-20T00:42:12.473Z,16.80
2019-01-20T00:47:27.363Z,23.10
2019-01-20T00:52:41.655Z,24.13
2019-01-20T00:57:56.710Z,19.27
2019-01-20T01:03:11.324Z,23.17
2019-01-20T01:08:25.987Z,21.23
2019-01-20T01:13:40.573Z,19.67
2019-01-20T01:18:55.500Z,25.07
2019-01-20T01:24:10.559Z,21.23
2019-01-20T01:29:25.511Z,32.03
2019-01-20T01:34:40.425Z,18.87
2019-01-20T01:39:55.232Z,24.13
2019-01-20T01:45:12.888Z,25.40
2019-01-20T01:50:27.842Z,28.60
2019-01-20T01:55:42.824Z,28.23
2019-01-20T02:00:57.627Z,23.30
2019-01-20T02:06:12.538Z,25.23
2019-01-20T02:11:27.559Z,21.30
2019-01-20T02:16:42.224Z,23.97
2019-01-20T02:21:56.485Z,19.43
2019-01-20T02:27:11.293Z,21.43
2019-01-20T02:32:26.160Z,26.63
2019-01-20T02:37:40.972Z,22.57
2019-01-20T02:42:55.635Z,24.47
2019-01-20T02:48:10.458Z,28.57
2019-01-20T02:53:27.420Z,32.07
2019-01-20T02:58:41.642Z,24.77
2019-01-20T03:03:56.541Z,19.57
2019-01-20T03:09:11.404Z,22.20
2019-01-20T03:14:29.138Z,21.80
2019-01-20T03:19:44.078Z,26.53
2019-01-20T03:24:59.351Z,26.37
2019-01-20T03:30:16.599Z,19.93
2019-01-20T03:35:31.208Z,31.87
2019-01-20T03:40:45.560Z,19.37
2019-01-20T03:46:00.412Z,28.70
2019-01-20T03:51:14.905Z,28.47
2019-01-20T03:56:29.725Z,35.73
2019-01-20T04:01:44.584Z,33.10
2019-01-20T04:06:59.350Z,24.57
2019-01-20T04:12:20.566Z,21.57
2019-01-20T04:17:30.140Z,21.43
2019-01-20T04:22:44.740Z,24.00
2019-01-20T04:27:59.741Z,18.17
2019-01-20T04:33:14.431Z,29.37
2019-01-20T04:38:28.978Z,27.77
2019-01-20T04:43:43.776Z,34.97
2019-01-20T04:48:59.393Z,27.23
2019-01-20T04:54:14.487Z,26.97
2019-01-20T04:59:29.037Z,24.60
2019-01-20T05:04:47.164Z,24.57
2019-01-20T05:10:01.629Z,20.20
2019-01-20T05:15:18.265Z,22.43
2019-01-20T05:20:32.769Z,23.13
2019-01-20T05:25:47.662Z,30.40
2019-01-20T05:31:02.520Z,23.97
2019-01-20T05:36:17.079Z,22.17
2019-01-20T05:41:32.122Z,22.83
2019-01-20T05:46:46.826Z,26.20
2019-01-20T05:52:01.603Z,23.67
2019-01-20T06:02:31.197Z,31.63
2019-01-20T06:07:45.716Z,25.73
2019-01-20T06:13:00.523Z,31.47
2019-01-20T06:18:15.489Z,23.97
2019-01-20T06:23:30.137Z,29.70
2019-01-20T06:28:47.629Z,25.30
2019-01-20T06:34:02.604Z,28.50
2019-01-20T06:39:17.579Z,24.50
2019-01-20T06:44:35.034Z,31.93
2019-01-20T06:49:49.561Z,17.43
2019-01-20T06:55:04.131Z,19.03
2019-01-20T07:00:20.071Z,24.17
2019-01-20T07:05:34.616Z,26.83
2019-01-20T07:10:48.853Z,20.57
2019-01-20T07:16:03.790Z,26.17
2019-01-20T07:21:18.639Z,32.33
2019-01-20T07:26:32.848Z,22.20
2019-01-20T07:31:47.495Z,22.20
2019-01-20T07:37:02.193Z,29.20
2019-01-20T07:42:17.213Z,36.13
2019-01-20T07:47:32.419Z,27.53
2019-01-20T07:52:48.930Z,29.77
2019-01-20T07:58:03.806Z,35.43
2019-01-20T08:03:18.657Z,34.50
2019-01-20T08:08:33.795Z,26.23
2019-01-20T08:13:48.149Z,34.83
2019-01-20T08:19:02.971Z,23.53
2019-01-20T08:24:17.574Z,24.53
2019-01-20T08:29:32.027Z,28.33
2019-01-20T08:34:46.256Z,27.73
2019-01-20T08:40:01.037Z,36.90
2019-01-20T08:45:29.616Z,23.67
2019-01-20T08:50:45.346Z,25.80
2019-01-20T08:56:01.590Z,27.20
2019-01-20T09:01:16.250Z,30.53
2019-01-20T09:06:31.105Z,19.80
2019-01-20T09:11:45.594Z,23.70
2019-01-20T09:17:00.098Z,35.67
2019-01-20T09:22:14.896Z,31.03
2019-01-20T09:27:29.889Z,25.03
2019-01-20T09:32:44.525Z,33.17
2019-01-20T09:37:59.341Z,22.47
2019-01-20T09:43:13.720Z,27.50
2019-01-20T09:48:28.225Z,17.07
2019-01-20T09:53:43.877Z,21.77
2019-01-20T09:58:58.620Z,19.10
2019-01-20T10:04:13.691Z,20.70
2019-01-20T10:09:28.665Z,26.10
2019-01-20T10:14:43.348Z,30.43
2019-01-20T10:19:58.440Z,31.33
2019-01-20T10:25:15.178Z,30.33
2019-01-20T10:30:34.638Z,21.33
2019-01-20T10:36:08.106Z,27.23
2019-01-20T10:41:22.894Z,41.23
2019-01-20T10:46:37.970Z,25.50
2019-01-20T10:51:53.043Z,25.57
2019-01-20T10:57:07.920Z,33.87
2019-01-20T11:02:22.527Z,35.20
2019-01-20T11:07:37.601Z,34.47
2019-01-20T11:12:52.110Z,34.80
2019-01-20T11:18:06.748Z,29.77
2019-01-20T11:23:25.612Z,29.27
2019-01-20T11:28:40.211Z,28.40
2019-01-20T11:33:57.304Z,23.67
2019-01-20T11:39:11.758Z,28.17
2019-01-20T11:44:27.711Z,36.33
2019-01-20T11:49:42.503Z,36.67
2019-01-20T11:54:57.719Z,28.27
2019-01-20T12:00:16.545Z,35.47
2019-01-20T12:05:32.667Z,33.07
2019-01-20T12:10:48.045Z,34.40
2019-01-20T12:16:02.949Z,23.47
2019-01-20T12:21:17.563Z,32.00
2019-01-20T12:26:34.794Z,26.53
2019-01-20T12:31:55.822Z,33.27
2019-01-20T12:37:10.547Z,38.77
2019-01-20T12:42:25.756Z,32.07
2019-01-20T12:47:41.182Z,44.10
2019-01-20T12:52:58.671Z,30.67
2019-01-20T12:58:14.076Z,38.23
2019-01-20T13:03:29.094Z,34.83
2019-01-20T13:08:43.783Z,44.17
2019-01-20T13:13:58.859Z,30.13
2019-01-20T13:19:18.682Z,43.27
2019-01-20T13:24:33.479Z,30.63
2019-01-20T13:29:48.307Z,38.50
2019-01-20T13:35:07.705Z,40.67
2019-01-20T13:40:27.383Z,32.00
2019-01-20T13:45:41.916Z,34.77
2019-01-20T13:51:00.330Z,47.67
2019-01-20T13:56:15.284Z,27.37
2019-01-20T14:01:36.290Z,38.73
2019-01-20T14:06:54.585Z,44.07
2019-01-20T14:12:15.561Z,37.33
2019-01-20T14:17:38.501Z,43.20
2019-01-20T14:28:36.588Z,40.07
2019-01-20T14:33:51.658Z,37.27
2019-01-20T14:39:12.921Z,37.93
2019-01-20T14:44:27.445Z,39.30
2019-01-20T14:49:45.057Z,50.60
2019-01-20T14:55:07.491Z,37.27
2019-01-20T15:00:39.778Z,39.70
2019-01-20T15:06:02.083Z,43.40
2019-01-20T15:11:22.043Z,36.13
2019-01-20T15:16:39.772Z,41.50
2019-01-20T15:21:59.707Z,40.67
2019-01-20T15:27:17.954Z,38.63
2019-01-20T15:32:33.974Z,47.43
2019-01-20T15:37:50.570Z,47.87
2019-01-20T15:43:06.994Z,45.63
2019-01-20T15:48:23.859Z,54.10
2019-01-20T15:53:41.193Z,43.67
2019-01-20T15:58:57.260Z,38.70
2019-01-20T16:04:13.548Z,45.30
2019-01-20T16:09:31.910Z,50.07
2019-01-20T16:14:47.962Z,51.10
2019-01-20T16:20:07.535Z,46.20
2019-01-20T16:25:36.177Z,47.23
2019-01-20T16:30:50.827Z,48.50
2019-01-20T16:36:08.052Z,57.20
2019-01-20T16:41:25.675Z,50.40
2019-01-20T16:46:41.456Z,37.80
2019-01-20T16:51:57.546Z,41.33
2019-01-20T16:57:12.243Z,48.90
2019-01-20T17:02:26.947Z,41.93
2019-01-20T17:07:41.752Z,40.23
2019-01-20T17:12:56.921Z,49.53
2019-01-20T17:18:12.430Z,41.73
2019-01-20T17:23:27.294Z,42.40
2019-01-20T17:28:41.963Z,50.33
2019-01-20T17:33:56.968Z,46.67
2019-01-20T17:39:12.294Z,49.13
2019-01-20T17:44:27.330Z,52.60
2019-01-20T17:49:42.101Z,58.47
2019-01-20T17:54:56.708Z,39.40
2019-01-20T18:00:14.362Z,45.13
2019-01-20T18:05:29.724Z,39.30
2019-01-20T18:10:44.242Z,40.13
2019-01-20T18:15:59.176Z,39.33
2019-01-20T18:21:14.225Z,49.77
2019-01-20T18:26:28.708Z,48.20
2019-01-20T18:31:44.365Z,45.27
2019-01-20T18:36:59.109Z,42.10
2019-01-20T18:42:13.916Z,53.10
2019-01-20T18:47:28.784Z,38.23
2019-01-20T18:52:44.920Z,52.00
2019-01-20T19:03:08.553Z,40.80
2019-01-20T19:08:26.539Z,46.43
2019-01-20T19:13:41.752Z,52.90
2019-01-20T19:18:56.517Z,42.80
2019-01-20T19:24:10.715Z,44.40
2019-01-20T19:29:25.528Z,55.93
2019-01-20T19:34:40.493Z,49.00
2019-01-20T19:39:57.255Z,51.00
2019-01-20T19:45:32.789Z,48.97
2019-01-20T19:50:48.248Z,53.83
2019-01-20T19:56:11.902Z,56.17
2019-01-20T20:01:32.459Z,51.50
2019-01-20T20:06:48.171Z,48.37
2019-01-20T20:12:03.129Z,57.07
2019-01-20T20:17:17.485Z,46.63
2019-01-20T20:22:32.979Z,50.53
2019-01-20T20:27:47.938Z,39.70
2019-01-20T20:33:02.412Z,54.87
2019-01-20T20:38:17.705Z,43.10
2019-01-20T20:43:34.208Z,46.43
2019-01-20T20:48:49.148Z,62.03
2019-01-20T20:54:03.688Z,54.10
2019-01-20T20:59:18.667Z,48.70
2019-01-20T21:04:33.376Z,40.73
2019-01-20T21:09:48.774Z,45.77
2019-01-20T21:15:07.826Z,43.97
2019-01-20T21:20:22.437Z,49.10
2019-01-20T21:25:41.647Z,48.40
2019-01-20T21:30:56.834Z,42.80
2019-01-20T21:36:11.322Z,48.03
2019-01-20T21:41:26.703Z,53.27
2019-01-20T21:46:45.367Z,42.80
2019-01-20T21:52:02.067Z,40.17
2019-01-20T21:57:16.658Z,47.23
2019-01-20T22:02:31.384Z,43.13
2019-01-20T22:07:46.299Z,47.17
2019-01-20T22:13:00.883Z,47.93
2019-01-20T22:18:15.748Z,44.03
2019-01-20T22:23:30.950Z,41.17
2019-01-20T22:28:45.456Z,41.13
2019-01-20T22:34:49.904Z,49.53
2019-01-20T22:40:12.355Z,43.57
2019-01-20T22:45:28.182Z,30.00
2019-01-20T22:50:43.251Z,41.27
2019-01-20T22:55:57.291Z,45.57
2019-01-20T23:01:31.248Z,42.90
2019-01-20T23:06:46.032Z,45.07
2019-01-20T23:12:00.392Z,38.30
2019-01-20T23:17:15.353Z,40.70
2019-01-20T23:22:29.934Z,45.87
2019-01-20T23:27:44.953Z,41.90
2019-01-20T23:32:59.784Z,49.93
2019-01-20T23:38:14.451Z,37.60
2019-01-20T23:43:29.137Z,42.53
2019-01-20T23:48:44.104Z,43.57
2019-01-20T23:53:59.176Z,37.37
2019-01-20T23:59:13.881Z,34.80
